This is the latest recevied weather packets stored in our database for station/object KB3MVG-13. If no packets are shown the sender has not sent any weather packets the latest 10 day(s).
| Time | Temp. | Humidity | Pressure | Rain* | Wind** | Luminosity | Snow |
|---|---|---|---|---|---|---|---|
| 1777643416 | 6.11° C | 57% | 1025.7 hPa | 0 mm | - | 215 W/m² | - |
| 1777638036 | 4.44° C | 61% | 1024.5 hPa | 0 mm | - | 23 W/m² | - |
| 1777637416 | 4.44° C | 61% | 1024.5 hPa | 0 mm | - | 10 W/m² | - |
| 1777629616 | 4.44° C | 68% | 1024.6 hPa | 0 mm | - | 0 W/m² | - |
| 1777627817 | 3.89° C | 70% | 1024.6 hPa | 0 mm | - | 0 W/m² | - |
| 1777627216 | 3.89° C | 71% | 1024.5 hPa | 0 mm | - | 0 W/m² | - |
| 1777626617 | 3.89° C | 73% | 1024.7 hPa | 0 mm | - | 0 W/m² | - |
| 1777617036 | 4.44° C | 77% | 1025.1 hPa | 0 mm | - | 0 W/m² | - |
| 1777616436 | 4.44° C | 75% | 1025.5 hPa | 0 mm | - | 0 W/m² | - |
| 1777615816 | 4.44° C | 74% | 1025.4 hPa | 0 mm | - | 0 W/m² | - |
| 1777615216 | 4.44° C | 73% | 1025.4 hPa | 0 mm | - | 0 W/m² | - |
| 1777612816 | 5° C | 71% | 1025.4 hPa | 0 mm | - | 0 W/m² | - |
| 1777611615 | 5° C | 69% | 1025.4 hPa | 0 mm | - | 0 W/m² | - |
| 1777606215 | 5.56° C | 65% | 1025.3 hPa | 0 mm | - | 0 W/m² | - |
| 1777605615 | 5.56° C | 65% | 1025.1 hPa | 0 mm | - | 0 W/m² | - |
| 1777600815 | 6.11° C | 63% | 1024.1 hPa | 0 mm | - | 0 W/m² | - |
| 1777597215 | 6.11° C | 62% | 1023.9 hPa | 0 mm | - | 54 W/m² | - |
| 1777596615 | 6.11° C | 63% | 1023.9 hPa | 0 mm | - | 48 W/m² | - |
| 1777593015 | 6.11° C | 63% | 1023.7 hPa | 0 mm | - | 28 W/m² | - |
| 1777591835 | 6.11° C | 62% | 1024.1 hPa | 0 mm | - | 28 W/m² | - |
| 1777585815 | 6.11° C | 61% | 1023.9 hPa | 0 mm | - | 211 W/m² | - |
| 1777584635 | 6.11° C | 62% | 1024.2 hPa | 0 mm | - | 270 W/m² | - |
| 1777582235 | 5.56° C | 61% | 1024.4 hPa | 0 mm | - | 207 W/m² | - |
| 1777580435 | 5.56° C | 59% | 1024.3 hPa | 0 mm | - | 131 W/m² | - |
| 1777579815 | 5.56° C | 63% | 1024.4 hPa | 0 mm | - | 202 W/m² | - |
* Rain latest hour (hover to see other rain measurements)
** Current wind speed in m/s (hover to see current wind gust speed)